Strona główna
METAR-TAF:

METAR-TAF

Lotnisko :

Port lotniczy Gran Canaria

Gran Canaria, Hiszpania

Szerokość geograficzna: 27-56N, Długość geograficzna: 015-23W, wysokość: 23 m

Aktualna obserwacja pogody

Raport powstał 18 minut temu, godzina 07:00 UTC
Wiatr 10 kt od północ
Temperatura 21°C
Wilgotność 69%
Ciśnienie 1017 hPa
Widzialność 10 km lub więcej
Przerywane chmury na wysokości 2500 ft

METAR: GCLP 200700Z 35010KT 9999 BKN025 21/15 Q1017 NOSIG

czas: 08:18 (07:18 UTC)

Prognoza

Raport powstał 5 godziny i 18 minut temu, godzina 02:00 UTC
Prognoza ważna od 20 godzina 03 UTC do 21 godzina 03 UTC
Wiatr 9 kt od północno-północny zachód
Widzialność 10 km lub więcej
Mało chmury na wysokości 2500 ft

TAF: GCLP 200200Z 2003/2103 34009KT 9999 FEW025 TX26/2015Z TN19/2005Z

Obserwacja i prognoza pogody dla ponad 4000 lotnisk (raport METAR i TAF).

Dostępne stacje oznaczono żółtymi i czerwonymi punktami na mapie.

Najedź kursorem aby zobaczyć nazwę stacji.

Kliknij aby zobaczyć obserwacje i prognozy pogody.

Aby zmienić mapę: kliknij na zielony przycisk z czarnym krzyżykiem, aby powiększyć; na zielony przycisk z myślnikiem, aby pomniejszyć; na zielone strzałki, aby przejść do map sąsiednich.


METAR-TAF: